sensor_id;sensor_type;location;lat;lon;timestamp;pressure;altitude;pressure_sealevel;temperature
77331;BMP280;66405;48.328;7.820;2023-03-16T00:01:15;100255.56;;;4.81
77331;BMP280;66405;48.328;7.820;2023-03-16T00:03:40;100252.13;;;4.76
77331;BMP280;66405;48.328;7.820;2023-03-16T00:06:06;100251.00;;;4.74
77331;BMP280;66405;48.328;7.820;2023-03-16T00:08:31;100250.63;;;4.72
77331;BMP280;66405;48.328;7.820;2023-03-16T00:10:57;100249.50;;;4.69
77331;BMP280;66405;48.328;7.820;2023-03-16T00:13:23;100253.72;;;4.67
77331;BMP280;66405;48.328;7.820;2023-03-16T00:15:59;100251.84;;;4.64
77331;BMP280;66405;48.328;7.820;2023-03-16T00:18:26;100253.38;;;4.61
77331;BMP280;66405;48.328;7.820;2023-03-16T00:20:54;100248.44;;;4.56
77331;BMP280;66405;48.328;7.820;2023-03-16T00:23:20;100257.63;;;4.51
77331;BMP280;66405;48.328;7.820;2023-03-16T00:25:55;100253.78;;;4.49
77331;BMP280;66405;48.328;7.820;2023-03-16T00:28:22;100249.63;;;4.44
77331;BMP280;66405;48.328;7.820;2023-03-16T00:30:48;100240.84;;;4.40
77331;BMP280;66405;48.328;7.820;2023-03-16T00:33:14;100236.28;;;4.37
77331;BMP280;66405;48.328;7.820;2023-03-16T00:35:39;100243.19;;;4.31
77331;BMP280;66405;48.328;7.820;2023-03-16T00:38:13;100238.19;;;4.29
77331;BMP280;66405;48.328;7.820;2023-03-16T00:40:39;100241.28;;;4.24
77331;BMP280;66405;48.328;7.820;2023-03-16T00:43:04;100246.28;;;4.22
77331;BMP280;66405;48.328;7.820;2023-03-16T00:45:31;100255.84;;;4.19
77331;BMP280;66405;48.328;7.820;2023-03-16T00:47:58;100248.56;;;4.16
77331;BMP280;66405;48.328;7.820;2023-03-16T00:50:24;100239.41;;;4.10
77331;BMP280;66405;48.328;7.820;2023-03-16T00:52:51;100245.91;;;4.05
77331;BMP280;66405;48.328;7.820;2023-03-16T00:55:18;100246.31;;;3.97
77331;BMP280;66405;48.328;7.820;2023-03-16T00:57:44;100251.31;;;3.87
77331;BMP280;66405;48.328;7.820;2023-03-16T01:00:10;100241.78;;;3.79
77331;BMP280;66405;48.328;7.820;2023-03-16T01:02:39;100236.84;;;3.74
77331;BMP280;66405;48.328;7.820;2023-03-16T01:05:05;100244.06;;;3.70
77331;BMP280;66405;48.328;7.820;2023-03-16T01:07:31;100237.97;;;3.66
77331;BMP280;66405;48.328;7.820;2023-03-16T01:09:56;100227.66;;;3.64
77331;BMP280;66405;48.328;7.820;2023-03-16T01:12:22;100232.59;;;3.62
77331;BMP280;66405;48.328;7.820;2023-03-16T01:14:48;100226.91;;;3.60
77331;BMP280;66405;48.328;7.820;2023-03-16T01:17:15;100220.38;;;3.57
77331;BMP280;66405;48.328;7.820;2023-03-16T01:19:42;100215.44;;;3.56
77331;BMP280;66405;48.328;7.820;2023-03-16T01:22:09;100219.25;;;3.55
77331;BMP280;66405;48.328;7.820;2023-03-16T01:24:35;100224.25;;;3.53
77331;BMP280;66405;48.328;7.820;2023-03-16T01:27:02;100230.38;;;3.53
77331;BMP280;66405;48.328;7.820;2023-03-16T01:29:29;100223.88;;;3.51
77331;BMP280;66405;48.328;7.820;2023-03-16T01:31:56;100226.53;;;3.47
77331;BMP280;66405;48.328;7.820;2023-03-16T01:34:22;100231.13;;;3.50
77331;BMP280;66405;48.328;7.820;2023-03-16T01:36:48;100226.91;;;3.49
77331;BMP280;66405;48.328;7.820;2023-03-16T01:39:22;100220.81;;;3.49
77331;BMP280;66405;48.328;7.820;2023-03-16T01:41:48;100217.38;;;3.48
77331;BMP280;66405;48.328;7.820;2023-03-16T01:44:25;100226.16;;;3.45
77331;BMP280;66405;48.328;7.820;2023-03-16T01:47:03;100222.72;;;3.41
77331;BMP280;66405;48.328;7.820;2023-03-16T01:49:32;100215.09;;;3.36
77331;BMP280;66405;48.328;7.820;2023-03-16T01:52:17;100211.63;;;3.35
77331;BMP280;66405;48.328;7.820;2023-03-16T01:54:53;100215.06;;;3.32
77331;BMP280;66405;48.328;7.820;2023-03-16T01:57:22;100205.16;;;3.29
77331;BMP280;66405;48.328;7.820;2023-03-16T01:59:52;100212.06;;;3.26
77331;BMP280;66405;48.328;7.820;2023-03-16T02:02:23;100218.88;;;3.24
77331;BMP280;66405;48.328;7.820;2023-03-16T02:04:53;100208.59;;;3.22
77331;BMP280;66405;48.328;7.820;2023-03-16T02:07:24;100197.53;;;3.20
77331;BMP280;66405;48.328;7.820;2023-03-16T02:09:53;100199.44;;;3.20
77331;BMP280;66405;48.328;7.820;2023-03-16T02:12:21;100199.81;;;3.18
77331;BMP280;66405;48.328;7.820;2023-03-16T02:14:52;100202.84;;;3.17
77331;BMP280;66405;48.328;7.820;2023-03-16T02:17:24;100194.84;;;3.13
77331;BMP280;66405;48.328;7.820;2023-03-16T02:22:59;100199.41;;;3.05
77331;BMP280;66405;48.328;7.820;2023-03-16T02:28:48;100190.63;;;2.94
77331;BMP280;66405;48.328;7.820;2023-03-16T02:31:18;100189.47;;;2.91
77331;BMP280;66405;48.328;7.820;2023-03-16T02:33:46;100184.13;;;2.88
77331;BMP280;66405;48.328;7.820;2023-03-16T02:36:13;100191.75;;;2.82
77331;BMP280;66405;48.328;7.820;2023-03-16T02:38:39;100186.41;;;2.78
77331;BMP280;66405;48.328;7.820;2023-03-16T02:41:17;100178.78;;;2.77
77331;BMP280;66405;48.328;7.820;2023-03-16T02:43:50;100182.59;;;2.76
77331;BMP280;66405;48.328;7.820;2023-03-16T02:46:27;100176.09;;;2.73
77331;BMP280;66405;48.328;7.820;2023-03-16T02:49:02;100172.66;;;2.73
77331;BMP280;66405;48.328;7.820;2023-03-16T02:51:30;100167.69;;;2.71
77331;BMP280;66405;48.328;7.820;2023-03-16T02:53:56;100169.22;;;2.72
77331;BMP280;66405;48.328;7.820;2023-03-16T02:56:23;100169.59;;;2.71
77331;BMP280;66405;48.328;7.820;2023-03-16T02:58:49;100161.22;;;2.68
77331;BMP280;66405;48.328;7.820;2023-03-16T03:01:17;100168.06;;;2.70
77331;BMP280;66405;48.328;7.820;2023-03-16T03:03:42;100167.31;;;2.69
77331;BMP280;66405;48.328;7.820;2023-03-16T03:06:08;100169.63;;;2.67
77331;BMP280;66405;48.328;7.820;2023-03-16T03:08:35;100163.53;;;2.66
77331;BMP280;66405;48.328;7.820;2023-03-16T03:11:01;100163.13;;;2.64
77331;BMP280;66405;48.328;7.820;2023-03-16T03:13:26;100158.19;;;2.63
77331;BMP280;66405;48.328;7.820;2023-03-16T03:15:52;100158.19;;;2.63
77331;BMP280;66405;48.328;7.820;2023-03-16T03:18:20;100160.06;;;2.62
77331;BMP280;66405;48.328;7.820;2023-03-16T03:20:45;100155.88;;;2.61
77331;BMP280;66405;48.328;7.820;2023-03-16T03:23:11;100153.19;;;2.61
77331;BMP280;66405;48.328;7.820;2023-03-16T03:25:36;100160.84;;;2.59
77331;BMP280;66405;48.328;7.820;2023-03-16T03:28:03;100146.31;;;2.57
77331;BMP280;66405;48.328;7.820;2023-03-16T03:30:32;100154.34;;;2.57
77331;BMP280;66405;48.328;7.820;2023-03-16T03:32:58;100138.72;;;2.55
77331;BMP280;66405;48.328;7.820;2023-03-16T03:35:24;100137.19;;;2.54
77331;BMP280;66405;48.328;7.820;2023-03-16T03:37:50;100141.75;;;2.54
77331;BMP280;66405;48.328;7.820;2023-03-16T03:40:17;100138.69;;;2.51
77331;BMP280;66405;48.328;7.820;2023-03-16T03:42:46;100136.78;;;2.52
77331;BMP280;66405;48.328;7.820;2023-03-16T03:45:13;100131.44;;;2.52
77331;BMP280;66405;48.328;7.820;2023-03-16T03:47:41;100137.16;;;2.50
77331;BMP280;66405;48.328;7.820;2023-03-16T03:50:11;100137.91;;;2.51
77331;BMP280;66405;48.328;7.820;2023-03-16T03:52:48;100147.84;;;2.50
77331;BMP280;66405;48.328;7.820;2023-03-16T03:55:13;100143.25;;;2.51
77331;BMP280;66405;48.328;7.820;2023-03-16T03:57:38;100132.59;;;2.51
77331;BMP280;66405;48.328;7.820;2023-03-16T04:00:07;100141.38;;;2.51
77331;BMP280;66405;48.328;7.820;2023-03-16T04:02:39;100130.31;;;2.49
77331;BMP280;66405;48.328;7.820;2023-03-16T04:05:12;100135.63;;;2.49
77331;BMP280;66405;48.328;7.820;2023-03-16T04:07:38;100140.22;;;2.49
77331;BMP280;66405;48.328;7.820;2023-03-16T04:10:08;100140.56;;;2.47
77331;BMP280;66405;48.328;7.820;2023-03-16T04:12:38;100139.03;;;2.46
77331;BMP280;66405;48.328;7.820;2023-03-16T04:15:05;100139.44;;;2.45
77331;BMP280;66405;48.328;7.820;2023-03-16T04:17:38;100145.53;;;2.45
77331;BMP280;66405;48.328;7.820;2023-03-16T04:20:07;100134.47;;;2.43
77331;BMP280;66405;48.328;7.820;2023-03-16T04:22:42;100131.41;;;2.41
77331;BMP280;66405;48.328;7.820;2023-03-16T04:25:10;100139.03;;;2.39
77331;BMP280;66405;48.328;7.820;2023-03-16T04:27:37;100131.75;;;2.36
77331;BMP280;66405;48.328;7.820;2023-03-16T04:30:08;100128.72;;;2.34
77331;BMP280;66405;48.328;7.820;2023-03-16T04:32:37;100123.03;;;2.32
77331;BMP280;66405;48.328;7.820;2023-03-16T04:35:03;100125.31;;;2.30
77331;BMP280;66405;48.328;7.820;2023-03-16T04:37:40;100129.50;;;2.27
77331;BMP280;66405;48.328;7.820;2023-03-16T04:40:06;100126.81;;;2.20
77331;BMP280;66405;48.328;7.820;2023-03-16T04:42:44;100121.81;;;2.11
77331;BMP280;66405;48.328;7.820;2023-03-16T04:45:15;100129.41;;;2.09
77331;BMP280;66405;48.328;7.820;2023-03-16T04:47:42;100125.19;;;2.08
77331;BMP280;66405;48.328;7.820;2023-03-16T04:50:08;100121.00;;;2.07
77331;BMP280;66405;48.328;7.820;2023-03-16T04:52:35;100122.91;;;2.07
77331;BMP280;66405;48.328;7.820;2023-03-16T04:55:01;100117.59;;;2.07
77331;BMP280;66405;48.328;7.820;2023-03-16T04:57:27;100117.59;;;2.07
77331;BMP280;66405;48.328;7.820;2023-03-16T04:59:55;100124.44;;;2.08
77331;BMP280;66405;48.328;7.820;2023-03-16T05:02:30;100111.13;;;2.08
77331;BMP280;66405;48.328;7.820;2023-03-16T05:04:59;100113.78;;;2.08
77331;BMP280;66405;48.328;7.820;2023-03-16T05:07:24;100106.16;;;2.06
77331;BMP280;66405;48.328;7.820;2023-03-16T05:09:52;100105.00;;;2.07
77331;BMP280;66405;48.328;7.820;2023-03-16T05:12:20;100113.00;;;2.07
77331;BMP280;66405;48.328;7.820;2023-03-16T05:14:50;100109.22;;;2.08
77331;BMP280;66405;48.328;7.820;2023-03-16T05:17:21;100109.97;;;2.09
77331;BMP280;66405;48.328;7.820;2023-03-16T05:19:47;100106.19;;;2.10
77331;BMP280;66405;48.328;7.820;2023-03-16T05:22:14;100106.56;;;2.12
77331;BMP280;66405;48.328;7.820;2023-03-16T05:24:56;100106.94;;;2.10
77331;BMP280;66405;48.328;7.820;2023-03-16T05:27:22;100105.41;;;2.13
77331;BMP280;66405;48.328;7.820;2023-03-16T05:29:47;100099.72;;;2.14
77331;BMP280;66405;48.328;7.820;2023-03-16T05:32:13;100094.75;;;2.16
77331;BMP280;66405;48.328;7.820;2023-03-16T05:34:39;100100.88;;;2.17
77331;BMP280;66405;48.328;7.820;2023-03-16T05:37:08;100098.59;;;2.19
77331;BMP280;66405;48.328;7.820;2023-03-16T05:39:34;100099.75;;;2.22
77331;BMP280;66405;48.328;7.820;2023-03-16T05:41:59;100108.91;;;2.24
77331;BMP280;66405;48.328;7.820;2023-03-16T05:44:31;100109.69;;;2.25
77331;BMP280;66405;48.328;7.820;2023-03-16T05:47:06;100116.16;;;2.27
77331;BMP280;66405;48.328;7.820;2023-03-16T05:49:35;100116.16;;;2.31
77331;BMP280;66405;48.328;7.820;2023-03-16T05:52:05;100119.59;;;2.35
77331;BMP280;66405;48.328;7.820;2023-03-16T05:54:33;100123.03;;;2.39
77331;BMP280;66405;48.328;7.820;2023-03-16T05:56:59;100117.69;;;2.43
77331;BMP280;66405;48.328;7.820;2023-03-16T05:59:24;100115.44;;;2.45
77331;BMP280;66405;48.328;7.820;2023-03-16T06:01:53;100120.41;;;2.50
77331;BMP280;66405;48.328;7.820;2023-03-16T06:04:20;100124.97;;;2.57
77331;BMP280;66405;48.328;7.820;2023-03-16T06:06:46;100121.97;;;2.62
77331;BMP280;66405;48.328;7.820;2023-03-16T06:09:19;100110.16;;;2.66
77331;BMP280;66405;48.328;7.820;2023-03-16T06:11:45;100116.59;;;2.73
77331;BMP280;66405;48.328;7.820;2023-03-16T06:14:13;100115.47;;;2.77
77331;BMP280;66405;48.328;7.820;2023-03-16T06:16:39;100113.19;;;2.83
77331;BMP280;66405;48.328;7.820;2023-03-16T06:19:07;100111.66;;;2.89
77331;BMP280;66405;48.328;7.820;2023-03-16T06:21:33;100116.25;;;2.96
77331;BMP280;66405;48.328;7.820;2023-03-16T06:24:06;100109.00;;;3.04
77331;BMP280;66405;48.328;7.820;2023-03-16T06:26:34;100115.88;;;3.12
77331;BMP280;66405;48.328;7.820;2023-03-16T06:29:01;100114.72;;;3.24
77331;BMP280;66405;48.328;7.820;2023-03-16T06:31:28;100120.78;;;3.35
77331;BMP280;66405;48.328;7.820;2023-03-16T06:33:53;100128.44;;;3.47
77331;BMP280;66405;48.328;7.820;2023-03-16T06:36:19;100128.38;;;3.62
77331;BMP280;66405;48.328;7.820;2023-03-16T06:38:50;100124.91;;;3.76
77331;BMP280;66405;48.328;7.820;2023-03-16T06:41:23;100135.56;;;3.90
77331;BMP280;66405;48.328;7.820;2023-03-16T06:43:51;100132.47;;;4.03
77331;BMP280;66405;48.328;7.820;2023-03-16T06:46:18;100134.66;;;4.19
77331;BMP280;66405;48.328;7.820;2023-03-16T06:48:44;100140.34;;;4.32
77331;BMP280;66405;48.328;7.820;2023-03-16T06:51:11;100141.03;;;4.43
77331;BMP280;66405;48.328;7.820;2023-03-16T06:53:37;100144.44;;;4.51
77331;BMP280;66405;48.328;7.820;2023-03-16T06:56:03;100142.81;;;4.64
77331;BMP280;66405;48.328;7.820;2023-03-16T06:58:32;100137.34;;;4.82
77331;BMP280;66405;48.328;7.820;2023-03-16T07:01:01;100131.09;;;4.96
77331;BMP280;66405;48.328;7.820;2023-03-16T07:03:30;100121.03;;;5.11
77331;BMP280;66405;48.328;7.820;2023-03-16T07:06:04;100115.91;;;5.24
77331;BMP280;66405;48.328;7.820;2023-03-16T07:08:30;100110.78;;;5.40
77331;BMP280;66405;48.328;7.820;2023-03-16T07:10:58;100112.91;;;5.56
77331;BMP280;66405;48.328;7.820;2023-03-16T07:13:23;100108.47;;;5.73
77331;BMP280;66405;48.328;7.820;2023-03-16T07:15:50;100098.34;;;5.88
77331;BMP280;66405;48.328;7.820;2023-03-16T07:18:19;100097.00;;;6.04
77331;BMP280;66405;48.328;7.820;2023-03-16T07:20:48;100090.25;;;6.19
77331;BMP280;66405;48.328;7.820;2023-03-16T07:23:14;100094.66;;;6.33
77331;BMP280;66405;48.328;7.820;2023-03-16T07:25:40;100085.69;;;6.44
77331;BMP280;66405;48.328;7.820;2023-03-16T07:28:07;100087.09;;;6.52
77331;BMP280;66405;48.328;7.820;2023-03-16T07:30:38;100080.78;;;6.62
77331;BMP280;66405;48.328;7.820;2023-03-16T07:33:06;100075.22;;;6.73
77331;BMP280;66405;48.328;7.820;2023-03-16T07:35:32;100083.47;;;6.86
77331;BMP280;66405;48.328;7.820;2023-03-16T07:37:57;100076.31;;;6.99
77331;BMP280;66405;48.328;7.820;2023-03-16T07:40:23;100075.22;;;7.17
77331;BMP280;66405;48.328;7.820;2023-03-16T07:42:49;100093.00;;;7.31
77331;BMP280;66405;48.328;7.820;2023-03-16T07:45:24;100085.09;;;7.44
77331;BMP280;66405;48.328;7.820;2023-03-16T07:47:50;100085.53;;;7.59
77331;BMP280;66405;48.328;7.820;2023-03-16T07:50:29;100069.66;;;7.64
77331;BMP280;66405;48.328;7.820;2023-03-16T07:52:55;100082.72;;;7.66
77331;BMP280;66405;48.328;7.820;2023-03-16T07:55:22;100074.22;;;7.67
77331;BMP280;66405;48.328;7.820;2023-03-16T07:57:49;100079.94;;;7.69
77331;BMP280;66405;48.328;7.820;2023-03-16T08:00:24;100082.47;;;7.77
77331;BMP280;66405;48.328;7.820;2023-03-16T08:02:52;100076.19;;;7.83
77331;BMP280;66405;48.328;7.820;2023-03-16T08:05:21;100074.00;;;7.95
77331;BMP280;66405;48.328;7.820;2023-03-16T08:07:52;100088.38;;;8.05
77331;BMP280;66405;48.328;7.820;2023-03-16T08:10:22;100074.38;;;8.13
77331;BMP280;66405;48.328;7.820;2023-03-16T08:12:54;100052.88;;;8.26
77331;BMP280;66405;48.328;7.820;2023-03-16T08:15:20;100061.81;;;8.40
77331;BMP280;66405;48.328;7.820;2023-03-16T08:17:46;100082.59;;;8.39
77331;BMP280;66405;48.328;7.820;2023-03-16T08:20:21;100094.44;;;8.42
77331;BMP280;66405;48.328;7.820;2023-03-16T08:22:48;100094.41;;;8.45
77331;BMP280;66405;48.328;7.820;2023-03-16T08:25:16;100097.66;;;8.53
77331;BMP280;66405;48.328;7.820;2023-03-16T08:27:52;100098.50;;;8.66
77331;BMP280;66405;48.328;7.820;2023-03-16T08:30:20;100092.53;;;8.88
77331;BMP280;66405;48.328;7.820;2023-03-16T08:32:54;100098.09;;;9.10
77331;BMP280;66405;48.328;7.820;2023-03-16T08:35:22;100097.31;;;9.26
77331;BMP280;66405;48.328;7.820;2023-03-16T08:37:48;100091.03;;;9.42
77331;BMP280;66405;48.328;7.820;2023-03-16T08:40:15;100099.06;;;9.59
77331;BMP280;66405;48.328;7.820;2023-03-16T08:42:43;100087.84;;;9.73
77331;BMP280;66405;48.328;7.820;2023-03-16T08:45:10;100083.69;;;9.94
77331;BMP280;66405;48.328;7.820;2023-03-16T08:47:38;100085.09;;;10.12
77331;BMP280;66405;48.328;7.820;2023-03-16T08:50:11;100079.69;;;10.25
77331;BMP280;66405;48.328;7.820;2023-03-16T08:52:40;100067.31;;;10.37
77331;BMP280;66405;48.328;7.820;2023-03-16T08:55:06;100065.22;;;10.54
77331;BMP280;66405;48.328;7.820;2023-03-16T08:57:34;100053.53;;;10.79
77331;BMP280;66405;48.328;7.820;2023-03-16T08:59:59;100042.44;;;11.08
77331;BMP280;66405;48.328;7.820;2023-03-16T09:02:27;100040.75;;;11.33
77331;BMP280;66405;48.328;7.820;2023-03-16T09:04:53;100037.63;;;11.44
77331;BMP280;66405;48.328;7.820;2023-03-16T09:07:18;100027.56;;;11.53
77331;BMP280;66405;48.328;7.820;2023-03-16T09:09:45;100024.59;;;11.61
77331;BMP280;66405;48.328;7.820;2023-03-16T09:12:12;100020.09;;;11.76
77331;BMP280;66405;48.328;7.820;2023-03-16T09:14:38;100027.66;;;11.81
77331;BMP280;66405;48.328;7.820;2023-03-16T09:17:05;100032.59;;;11.74
77331;BMP280;66405;48.328;7.820;2023-03-16T09:19:32;100030.47;;;11.68
77331;BMP280;66405;48.328;7.820;2023-03-16T09:21:58;100021.00;;;11.82
77331;BMP280;66405;48.328;7.820;2023-03-16T09:24:24;100016.81;;;11.81
77331;BMP280;66405;48.328;7.820;2023-03-16T09:26:51;100031.28;;;11.88
77331;BMP280;66405;48.328;7.820;2023-03-16T09:29:16;100031.28;;;11.88
77331;BMP280;66405;48.328;7.820;2023-03-16T09:31:46;100023.72;;;11.92
77331;BMP280;66405;48.328;7.820;2023-03-16T09:34:13;100022.84;;;12.04
77331;BMP280;66405;48.328;7.820;2023-03-16T09:36:39;100027.94;;;12.11
77331;BMP280;66405;48.328;7.820;2023-03-16T09:39:05;100033.84;;;12.28
77331;BMP280;66405;48.328;7.820;2023-03-16T09:46:42;100024.88;;;12.83
77331;BMP280;66405;48.328;7.820;2023-03-16T09:49:11;100016.19;;;13.03
77331;BMP280;66405;48.328;7.820;2023-03-16T09:57:32;100011.59;;;13.77
77331;BMP280;66405;48.328;7.820;2023-03-16T10:00:35;100008.47;;;14.08
77331;BMP280;66405;48.328;7.820;2023-03-16T10:03:35;100005.78;;;14.23
77331;BMP280;66405;48.328;7.820;2023-03-16T10:06:10;99997.72;;;14.43
77331;BMP280;66405;48.328;7.820;2023-03-16T10:11:24;100001.63;;;14.87
77331;BMP280;66405;48.328;7.820;2023-03-16T10:22:13;99998.03;;;15.78
77331;BMP280;66405;48.328;7.820;2023-03-16T10:24:52;99977.81;;;16.17
77331;BMP280;66405;48.328;7.820;2023-03-16T10:27:25;99976.84;;;16.46
77331;BMP280;66405;48.328;7.820;2023-03-16T10:29:52;99976.31;;;16.48
77331;BMP280;66405;48.328;7.820;2023-03-16T10:32:18;99981.63;;;16.57
77331;BMP280;66405;48.328;7.820;2023-03-16T10:34:57;99982.13;;;17.04
77331;BMP280;66405;48.328;7.820;2023-03-16T10:37:25;99978.06;;;17.54
77331;BMP280;66405;48.328;7.820;2023-03-16T10:39:53;99976.16;;;18.00
77331;BMP280;66405;48.328;7.820;2023-03-16T10:42:20;99982.84;;;18.33
77331;BMP280;66405;48.328;7.820;2023-03-16T10:44:46;99966.63;;;18.63
77331;BMP280;66405;48.328;7.820;2023-03-16T10:47:22;99980.69;;;18.96
77331;BMP280;66405;48.328;7.820;2023-03-16T10:49:49;99975.56;;;19.28
77331;BMP280;66405;48.328;7.820;2023-03-16T10:52:32;99979.22;;;19.42
77331;BMP280;66405;48.328;7.820;2023-03-16T10:55:09;99971.91;;;19.56
77331;BMP280;66405;48.328;7.820;2023-03-16T10:57:40;99968.97;;;19.48
77331;BMP280;66405;48.328;7.820;2023-03-16T11:00:19;99955.75;;;19.52
77331;BMP280;66405;48.328;7.820;2023-03-16T11:02:47;99958.66;;;19.66
77331;BMP280;66405;48.328;7.820;2023-03-16T11:07:50;99949.69;;;20.45
77331;BMP280;66405;48.328;7.820;2023-03-16T11:10:30;99945.28;;;20.80
77331;BMP280;66405;48.328;7.820;2023-03-16T11:13:11;99950.53;;;21.16
77331;BMP280;66405;48.328;7.820;2023-03-16T11:18:38;99947.91;;;21.88
77331;BMP280;66405;48.328;7.820;2023-03-16T11:21:37;99946.94;;;22.26
77331;BMP280;66405;48.328;7.820;2023-03-16T11:24:18;99946.06;;;22.58
77331;BMP280;66405;48.328;7.820;2023-03-16T11:26:53;99947.06;;;22.95
77331;BMP280;66405;48.328;7.820;2023-03-16T11:29:27;99943.13;;;22.90
77331;BMP280;66405;48.328;7.820;2023-03-16T11:32:03;99951.94;;;22.89
77331;BMP280;66405;48.328;7.820;2023-03-16T11:34:31;99947.88;;;23.03
77331;BMP280;66405;48.328;7.820;2023-03-16T11:37:08;99938.72;;;23.08
77331;BMP280;66405;48.328;7.820;2023-03-16T12:04:06;99893.34;;;24.99
77331;BMP280;66405;48.328;7.820;2023-03-16T12:07:15;99904.59;;;25.17
77331;BMP280;66405;48.328;7.820;2023-03-16T12:09:53;99891.28;;;25.31
77331;BMP280;66405;48.328;7.820;2023-03-16T12:17:53;99888.31;;;25.29
77331;BMP280;66405;48.328;7.820;2023-03-16T12:20:24;99882.06;;;25.36
77331;BMP280;66405;48.328;7.820;2023-03-16T12:22:57;99885.78;;;25.38
77331;BMP280;66405;48.328;7.820;2023-03-16T12:25:31;99889.81;;;25.37
77331;BMP280;66405;48.328;7.820;2023-03-16T12:27:59;99877.63;;;25.56
77331;BMP280;66405;48.328;7.820;2023-03-16T12:33:13;99876.44;;;25.82
77331;BMP280;66405;48.328;7.820;2023-03-16T12:36:01;99865.31;;;25.90
77331;BMP280;66405;48.328;7.820;2023-03-16T12:49:08;99871.75;;;24.90
77331;BMP280;66405;48.328;7.820;2023-03-16T12:51:36;99869.91;;;25.08
77331;BMP280;66405;48.328;7.820;2023-03-16T12:54:05;99864.16;;;25.37
77331;BMP280;66405;48.328;7.820;2023-03-16T12:56:34;99868.13;;;25.82
77331;BMP280;66405;48.328;7.820;2023-03-16T12:59:02;99864.41;;;26.28
77331;BMP280;66405;48.328;7.820;2023-03-16T13:01:41;99855.44;;;26.45
77331;BMP280;66405;48.328;7.820;2023-03-16T13:04:14;99850.72;;;26.30
77331;BMP280;66405;48.328;7.820;2023-03-16T13:06:43;99848.63;;;26.63
77331;BMP280;66405;48.328;7.820;2023-03-16T13:09:10;99844.63;;;26.56
77331;BMP280;66405;48.328;7.820;2023-03-16T13:11:46;99843.81;;;26.39
77331;BMP280;66405;48.328;7.820;2023-03-16T13:14:40;99832.63;;;25.96
77331;BMP280;66405;48.328;7.820;2023-03-16T13:20:30;99832.72;;;26.46
77331;BMP280;66405;48.328;7.820;2023-03-16T13:22:48;99822.31;;;26.22
77331;BMP280;66405;48.328;7.820;2023-03-16T13:27:54;99818.03;;;26.28
77331;BMP280;66405;48.328;7.820;2023-03-16T13:30:28;99811.84;;;26.70
77331;BMP280;66405;48.328;7.820;2023-03-16T13:32:58;99809.28;;;27.07
77331;BMP280;66405;48.328;7.820;2023-03-16T13:35:27;99807.03;;;27.06
77331;BMP280;66405;48.328;7.820;2023-03-16T13:38:02;99809.59;;;27.46
77331;BMP280;66405;48.328;7.820;2023-03-16T13:40:30;99810.47;;;28.03
77331;BMP280;66405;48.328;7.820;2023-03-16T13:42:57;99793.59;;;28.85
77331;BMP280;66405;48.328;7.820;2023-03-16T13:45:31;99800.28;;;29.50
77331;BMP280;66405;48.328;7.820;2023-03-16T13:47:57;99794.91;;;30.15
77331;BMP280;66405;48.328;7.820;2023-03-16T13:50:24;99790.94;;;30.61
77331;BMP280;66405;48.328;7.820;2023-03-16T13:53:01;99783.38;;;31.07
77331;BMP280;66405;48.328;7.820;2023-03-16T13:55:33;99776.56;;;31.67
77331;BMP280;66405;48.328;7.820;2023-03-16T13:58:00;99773.09;;;32.15
77331;BMP280;66405;48.328;7.820;2023-03-16T14:00:31;99771.19;;;32.81
77331;BMP280;66405;48.328;7.820;2023-03-16T14:03:10;99763.72;;;32.86
77331;BMP280;66405;48.328;7.820;2023-03-16T14:05:38;99773.16;;;31.92
77331;BMP280;66405;48.328;7.820;2023-03-16T14:08:15;99771.69;;;31.67
77331;BMP280;66405;48.328;7.820;2023-03-16T14:10:41;99764.50;;;31.88
77331;BMP280;66405;48.328;7.820;2023-03-16T14:15:56;99763.28;;;31.91
77331;BMP280;66405;48.328;7.820;2023-03-16T14:18:27;99771.09;;;31.57
77331;BMP280;66405;48.328;7.820;2023-03-16T14:20:56;99752.25;;;31.81
77331;BMP280;66405;48.328;7.820;2023-03-16T14:23:30;99759.41;;;31.96
77331;BMP280;66405;48.328;7.820;2023-03-16T14:26:03;99758.31;;;31.54
77331;BMP280;66405;48.328;7.820;2023-03-16T14:28:31;99757.84;;;31.00
77331;BMP280;66405;48.328;7.820;2023-03-16T14:31:10;99752.41;;;30.14
77331;BMP280;66405;48.328;7.820;2023-03-16T14:33:40;99747.25;;;29.48
77331;BMP280;66405;48.328;7.820;2023-03-16T14:36:17;99751.94;;;29.36
77331;BMP280;66405;48.328;7.820;2023-03-16T14:38:44;99748.88;;;29.32
77331;BMP280;66405;48.328;7.820;2023-03-16T14:41:20;99750.41;;;29.13
77331;BMP280;66405;48.328;7.820;2023-03-16T14:43:56;99738.56;;;28.83
77331;BMP280;66405;48.328;7.820;2023-03-16T14:46:26;99738.25;;;28.50
77331;BMP280;66405;48.328;7.820;2023-03-16T14:49:07;99733.59;;;28.06
77331;BMP280;66405;48.328;7.820;2023-03-16T14:51:37;99730.09;;;27.68
77331;BMP280;66405;48.328;7.820;2023-03-16T14:54:11;99733.31;;;27.20
77331;BMP280;66405;48.328;7.820;2023-03-16T14:56:36;99738.19;;;26.60
77331;BMP280;66405;48.328;7.820;2023-03-16T14:59:03;99744.72;;;26.04
77331;BMP280;66405;48.328;7.820;2023-03-16T15:01:28;99741.22;;;25.71
77331;BMP280;66405;48.328;7.820;2023-03-16T15:03:55;99744.50;;;25.36
77331;BMP280;66405;48.328;7.820;2023-03-16T15:06:21;99740.16;;;25.10
77331;BMP280;66405;48.328;7.820;2023-03-16T15:08:47;99747.59;;;24.84
77331;BMP280;66405;48.328;7.820;2023-03-16T15:11:15;99740.03;;;24.70
77331;BMP280;66405;48.328;7.820;2023-03-16T15:13:46;99741.88;;;24.36
77331;BMP280;66405;48.328;7.820;2023-03-16T15:16:13;99750.25;;;24.00
77331;BMP280;66405;48.328;7.820;2023-03-16T15:18:39;99748.72;;;23.76
77331;BMP280;66405;48.328;7.820;2023-03-16T15:21:12;99741.50;;;23.57
77331;BMP280;66405;48.328;7.820;2023-03-16T15:23:40;99743.47;;;23.20
77331;BMP280;66405;48.328;7.820;2023-03-16T15:26:10;99746.00;;;22.81
77331;BMP280;66405;48.328;7.820;2023-03-16T15:28:36;99745.13;;;22.44
77331;BMP280;66405;48.328;7.820;2023-03-16T15:31:02;99749.09;;;22.01
77331;BMP280;66405;48.328;7.820;2023-03-16T15:33:28;99748.25;;;21.80
77331;BMP280;66405;48.328;7.820;2023-03-16T15:35:58;99738.13;;;21.61
77331;BMP280;66405;48.328;7.820;2023-03-16T15:38:30;99738.34;;;21.50
77331;BMP280;66405;48.328;7.820;2023-03-16T15:40:57;99743.19;;;21.30
77331;BMP280;66405;48.328;7.820;2023-03-16T15:43:24;99749.22;;;21.15
77331;BMP280;66405;48.328;7.820;2023-03-16T15:45:51;99742.44;;;21.03
77331;BMP280;66405;48.328;7.820;2023-03-16T15:48:18;99739.56;;;20.95